Time;durP1;ratioP1;P1;durP2;ratioP2;P2;SDS_P1;SDS_P2;PMS_P1;PMS_P2;Temp;Humidity;BMP_temperature;BMP_pressure;BME280_temperature;BME280_humidity;BME280_pressure;Samples;Min_cycle;Max_cycle;Signal;HPM_P1;HPM_P2
2022/08/19 00:02:19;;;;;;;16.10;14.87;;;23.10;99.90;;;;;;5013436;28;20556;-49
2022/08/19 00:04:48;;;;;;;15.10;13.80;;;23.10;99.90;;;;;;5013794;28;20959;-49
2022/08/19 00:07:15;;;;;;;14.40;13.30;;;23.00;99.90;;;;;;5013330;28;20500;-50
2022/08/19 00:09:41;;;;;;;14.23;13.23;;;23.10;99.90;;;;;;5013076;28;20882;-49
2022/08/19 00:12:08;;;;;;;15.63;14.43;;;23.00;99.90;;;;;;5013361;28;20961;-49
2022/08/19 00:14:35;;;;;;;15.57;14.33;;;23.00;99.90;;;;;;5013440;28;20530;-50
2022/08/19 00:17:02;;;;;;;15.37;14.00;;;23.10;99.90;;;;;;5013398;28;20437;-49
2022/08/19 00:19:31;;;;;;;15.67;14.30;;;23.10;99.90;;;;;;5012777;28;20501;-50
2022/08/19 00:21:57;;;;;;;16.33;14.93;;;23.10;99.90;;;;;;5013030;28;20857;-49
2022/08/19 00:24:25;;;;;;;15.97;14.67;;;23.10;99.90;;;;;;5013277;28;20434;-49
2022/08/19 00:26:52;;;;;;;15.23;13.90;;;23.10;99.90;;;;;;5013264;28;20466;-49
2022/08/19 00:29:21;;;;;;;17.20;15.80;;;23.10;99.90;;;;;;5012941;28;20481;-49
2022/08/19 00:31:49;;;;;;;17.60;16.00;;;23.20;99.90;;;;;;5012984;28;20454;-49
2022/08/19 00:34:16;;;;;;;18.57;16.97;;;23.30;99.90;;;;;;5013138;28;20439;-49
2022/08/19 00:36:44;;;;;;;19.57;17.47;;;23.20;99.90;;;;;;5013149;28;20438;-49
2022/08/19 00:39:12;;;;;;;17.60;16.23;;;23.20;99.90;;;;;;5012751;28;20805;-49
2022/08/19 00:41:39;;;;;;;18.93;17.33;;;23.10;99.90;;;;;;5012709;28;20457;-49
2022/08/19 00:44:09;;;;;;;16.77;15.37;;;23.20;99.90;;;;;;5013001;28;20435;-50
2022/08/19 00:46:38;;;;;;;17.63;16.33;;;23.20;99.90;;;;;;5012774;28;20528;-50
2022/08/19 00:49:14;;;;;;;17.37;16.03;;;22.90;99.90;;;;;;5012517;28;20434;-49
2022/08/19 00:51:45;;;;;;;15.93;14.67;;;23.10;99.90;;;;;;5012974;28;20460;-49
2022/08/19 00:54:12;;;;;;;17.07;15.47;;;23.00;99.90;;;;;;5013184;28;20786;-50
2022/08/19 00:56:39;;;;;;;16.60;15.20;;;23.00;99.90;;;;;;5012685;28;20449;-49
2022/08/19 00:59:08;;;;;;;15.67;14.47;;;22.90;99.90;;;;;;5012141;28;20472;-49
2022/08/19 01:01:35;;;;;;;18.13;16.63;;;23.00;99.90;;;;;;5012362;28;20984;-49
2022/08/19 01:04:02;;;;;;;18.70;17.03;;;23.10;99.90;;;;;;5012548;28;20434;-49
2022/08/19 01:06:30;;;;;;;18.03;16.30;;;22.90;99.90;;;;;;5012604;28;20437;-49
2022/08/19 01:08:58;;;;;;;16.77;15.40;;;23.00;99.90;;;;;;5012144;28;20441;-49
2022/08/19 01:11:26;;;;;;;16.20;14.80;;;23.00;99.90;;;;;;5012417;28;20445;-49
2022/08/19 01:13:53;;;;;;;16.93;15.63;;;22.90;99.90;;;;;;5012920;28;20477;-49
2022/08/19 01:16:40;;;;;;;15.77;14.37;;;22.90;99.90;;;;;;5012526;28;20499;-49
2022/08/19 01:19:16;;;;;;;15.60;14.30;;;22.90;99.90;;;;;;5012106;28;20440;-49
2022/08/19 01:21:52;;;;;;;16.20;14.03;;;22.80;99.90;;;;;;5010808;28;20986;-49
2022/08/19 01:24:20;;;;;;;14.83;13.57;;;22.90;99.90;;;;;;5012572;28;20955;-49
2022/08/19 01:26:47;;;;;;;16.77;15.37;;;22.90;99.90;;;;;;5012201;28;20434;-50
2022/08/19 01:29:14;;;;;;;17.23;15.73;;;22.90;99.90;;;;;;5011866;28;20441;-49
2022/08/19 01:31:41;;;;;;;16.33;15.03;;;22.90;99.90;;;;;;5012350;28;20536;-49
2022/08/19 01:34:08;;;;;;;16.10;14.90;;;22.90;99.90;;;;;;5012432;28;20453;-50
2022/08/19 01:36:38;;;;;;;16.20;14.70;;;23.00;99.90;;;;;;5012226;28;20444;-48
2022/08/19 01:39:07;;;;;;;17.83;16.13;;;23.00;99.90;;;;;;5011892;28;20729;-49
2022/08/19 01:41:36;;;;;;;16.97;15.37;;;23.00;99.90;;;;;;5010936;28;20478;-49
2022/08/19 01:44:24;;;;;;;16.80;15.33;;;23.00;99.90;;;;;;5012162;28;20494;-49
2022/08/19 01:46:53;;;;;;;15.47;14.27;;;23.00;99.90;;;;;;5012135;28;20470;-49
2022/08/19 01:49:22;;;;;;;18.83;17.03;;;23.00;99.90;;;;;;5011638;28;20453;-49
2022/08/19 01:51:49;;;;;;;17.77;16.17;;;23.00;99.90;;;;;;5011988;28;20460;-49
2022/08/19 01:54:17;;;;;;;18.30;16.70;;;23.00;99.90;;;;;;5012116;28;20467;-49
2022/08/19 01:56:45;;;;;;;17.67;15.93;;;22.90;99.90;;;;;;5012017;28;20434;-49
2022/08/19 01:59:14;;;;;;;21.30;19.30;;;22.80;99.90;;;;;;5011637;28;20481;-49
2022/08/19 02:01:41;;;;;;;18.53;16.43;;;22.80;99.90;;;;;;5011901;28;20456;-49
2022/08/19 02:04:08;;;;;;;19.57;17.77;;;22.70;99.90;;;;;;5011884;28;20487;-49
2022/08/19 02:06:35;;;;;;;16.37;14.87;;;22.60;99.90;;;;;;5011954;28;20467;-49
2022/08/19 02:09:03;;;;;;;19.10;17.40;;;22.50;99.90;;;;;;5012345;28;20449;-49
2022/08/19 02:11:33;;;;;;;18.47;16.90;;;22.50;99.90;;;;;;5015746;28;20447;-49
2022/08/19 02:14:02;;;;;;;18.03;16.40;;;22.50;99.90;;;;;;5015754;28;20691;-49
2022/08/19 02:16:30;;;;;;;19.77;18.07;;;22.80;99.90;;;;;;5015777;28;20428;-49
2022/08/19 02:18:56;;;;;;;20.27;18.47;;;22.50;99.90;;;;;;5015589;28;20835;-49
2022/08/19 02:21:24;;;;;;;19.03;17.20;;;22.50;99.90;;;;;;5015463;28;20434;-49
2022/08/19 02:23:52;;;;;;;19.10;17.60;;;22.50;99.90;;;;;;5015627;28;21000;-50
2022/08/19 02:26:19;;;;;;;18.80;17.20;;;22.40;99.90;;;;;;5015453;28;20437;-49
2022/08/19 02:28:47;;;;;;;18.80;17.20;;;22.50;99.90;;;;;;5014960;28;20468;-49
2022/08/19 02:31:22;;;;;;;19.40;17.70;;;22.10;99.90;;;;;;5015380;28;20437;-50
2022/08/19 02:33:50;;;;;;;18.40;16.90;;;22.30;99.90;;;;;;5015424;28;20974;-50
2022/08/19 02:36:18;;;;;;;16.50;15.13;;;22.30;99.90;;;;;;5015243;28;20470;-49
2022/08/19 02:38:44;;;;;;;16.63;15.33;;;22.10;99.90;;;;;;5014930;28;20471;-49
2022/08/19 02:41:15;;;;;;;16.47;15.10;;;22.30;99.90;;;;;;5014967;28;20437;-49
2022/08/19 02:43:42;;;;;;;17.30;15.70;;;22.30;99.90;;;;;;5015206;28;20844;-49
2022/08/19 02:46:20;;;;;;;15.97;14.67;;;22.30;99.90;;;;;;5015108;28;20436;-49
2022/08/19 02:48:48;;;;;;;14.13;12.93;;;22.30;99.90;;;;;;5014673;28;20438;-49
2022/08/19 02:51:18;;;;;;;14.47;13.20;;;22.30;99.90;;;;;;5014896;28;20763;-49
2022/08/19 02:53:45;;;;;;;15.47;13.90;;;22.10;99.90;;;;;;5014924;28;20435;-48
2022/08/19 02:56:11;;;;;;;15.37;14.13;;;22.30;99.90;;;;;;5014863;28;20548;-49
2022/08/19 02:58:38;;;;;;;17.00;15.60;;;22.10;99.90;;;;;;5014600;28;20765;-49
2022/08/19 03:01:05;;;;;;;16.73;15.23;;;22.30;99.90;;;;;;5014815;28;20940;-49
2022/08/19 03:03:33;;;;;;;15.80;14.50;;;22.20;99.90;;;;;;5014608;28;20527;-49
2022/08/19 03:06:05;;;;;;;15.93;14.73;;;22.30;99.90;;;;;;5014909;28;20435;-49
2022/08/19 03:08:32;;;;;;;16.30;15.00;;;22.30;99.90;;;;;;5014261;28;20861;-49
2022/08/19 03:10:59;;;;;;;15.57;14.20;;;22.20;99.90;;;;;;5014692;28;20447;-49
2022/08/19 03:13:26;;;;;;;16.57;15.27;;;22.20;99.90;;;;;;5014870;28;20463;-49
2022/08/19 03:15:52;;;;;;;16.07;14.53;;;22.20;99.90;;;;;;5013567;28;20464;-50
2022/08/19 03:18:19;;;;;;;15.60;14.23;;;22.10;99.90;;;;;;5014527;28;20824;-49
2022/08/19 03:20:49;;;;;;;15.50;14.20;;;21.90;99.90;;;;;;5012748;28;20440;-50
2022/08/19 03:23:17;;;;;;;16.73;15.43;;;22.10;99.90;;;;;;5014355;28;20941;-49
2022/08/19 03:25:46;;;;;;;15.27;14.07;;;21.70;99.90;;;;;;5014279;28;20936;-48
2022/08/19 03:28:15;;;;;;;14.40;13.20;;;22.00;99.90;;;;;;5012823;28;20455;-48
2022/08/19 03:30:55;;;;;;;15.30;14.07;;;21.50;99.90;;;;;;5013781;28;20446;-48
2022/08/19 03:33:23;;;;;;;17.23;15.73;;;21.60;99.90;;;;;;5012607;28;20514;-48
2022/08/19 03:36:02;;;;;;;16.20;14.80;;;21.80;99.90;;;;;;5013916;28;20435;-49
2022/08/19 03:38:29;;;;;;;16.00;14.57;;;21.60;99.90;;;;;;5013859;28;20441;-48
2022/08/19 03:40:55;;;;;;;17.33;15.93;;;22.00;99.90;;;;;;5012831;28;20447;-48
2022/08/19 03:43:22;;;;;;;16.60;15.20;;;21.60;99.90;;;;;;5013926;28;20529;-49
2022/08/19 03:45:49;;;;;;;16.17;14.63;;;21.70;99.90;;;;;;5013815;28;20435;-49
2022/08/19 03:48:16;;;;;;;16.03;14.83;;;22.10;99.90;;;;;;5013995;28;20632;-49
2022/08/19 03:50:43;;;;;;;15.20;14.00;;;21.50;99.90;;;;;;5013441;28;20780;-49
2022/08/19 03:53:11;;;;;;;15.87;14.57;;;21.70;99.90;;;;;;5013669;28;20470;-49
2022/08/19 03:55:40;;;;;;;15.90;14.60;;;21.90;99.90;;;;;;5013691;28;20434;-49
2022/08/19 03:58:07;;;;;;;16.90;15.60;;;21.70;99.90;;;;;;5012673;28;20461;-49
2022/08/19 04:00:34;;;;;;;16.47;15.17;;;21.70;99.90;;;;;;5013311;28;20431;-49
2022/08/19 04:03:00;;;;;;;15.77;14.60;;;21.70;99.90;;;;;;5013528;28;20481;-49
2022/08/19 04:05:29;;;;;;;17.07;15.53;;;21.50;99.90;;;;;;5013715;28;20482;-49
2022/08/19 04:07:58;;;;;;;14.87;13.73;;;21.70;99.90;;;;;;5013472;28;20478;-49
2022/08/19 04:10:26;;;;;;;15.30;13.90;;;21.50;99.90;;;;;;5012933;28;20490;-49
2022/08/19 04:12:53;;;;;;;15.10;13.80;;;21.70;99.90;;;;;;5013145;28;20455;-49
2022/08/19 04:15:20;;;;;;;15.87;14.53;;;21.70;99.90;;;;;;5013461;28;20937;-48
2022/08/19 04:17:46;;;;;;;15.00;13.90;;;21.70;99.90;;;;;;5013287;28;20818;-49
2022/08/19 04:20:13;;;;;;;15.37;14.20;;;21.70;99.90;;;;;;5012998;28;20436;-49
2022/08/19 04:22:39;;;;;;;16.50;15.10;;;21.80;99.90;;;;;;5036154;23;21026;-46
2022/08/19 04:25:07;;;;;;;16.13;14.73;;;21.40;99.90;;;;;;5012703;28;20451;-45
2022/08/19 04:27:35;;;;;;;15.03;13.43;;;21.80;99.90;;;;;;5011230;28;20449;-47
2022/08/19 04:30:01;;;;;;;16.83;15.47;;;21.50;99.90;;;;;;5012286;28;20446;-47
2022/08/19 04:32:28;;;;;;;16.30;15.00;;;22.00;99.90;;;;;;5012235;28;20467;-47
2022/08/19 04:34:58;;;;;;;16.73;15.40;;;21.70;99.90;;;;;;5012563;28;20440;-47
2022/08/19 04:37:26;;;;;;;17.30;15.90;;;21.70;99.90;;;;;;5012909;28;20837;-47
2022/08/19 04:42:41;;;;;;;17.67;16.27;;;21.80;99.90;;;;;;5012519;28;20478;-47
2022/08/19 04:45:11;;;;;;;16.17;14.97;;;21.80;99.90;;;;;;5012543;28;20428;-47
2022/08/19 04:47:39;;;;;;;17.33;16.03;;;21.90;99.90;;;;;;5012590;28;20441;-48
2022/08/19 04:50:06;;;;;;;16.00;14.40;;;21.80;99.90;;;;;;5010817;28;20918;-48
2022/08/19 04:52:33;;;;;;;17.17;15.87;;;21.80;99.90;;;;;;5012450;28;20461;-47
2022/08/19 04:55:00;;;;;;;17.73;16.40;;;21.40;99.90;;;;;;5012201;28;20440;-47
2022/08/19 04:57:27;;;;;;;17.87;16.27;;;21.80;99.90;;;;;;5012663;28;20793;-46
2022/08/19 04:59:56;;;;;;;17.77;16.37;;;21.90;99.90;;;;;;5011856;28;20748;-46
2022/08/19 05:02:25;;;;;;;16.10;14.70;;;21.80;99.90;;;;;;5012164;28;20467;-47
2022/08/19 05:04:51;;;;;;;17.70;16.10;;;21.90;99.90;;;;;;5012328;28;20480;-47
2022/08/19 05:07:18;;;;;;;17.73;15.83;;;22.00;99.90;;;;;;5011947;28;20447;-47
2022/08/19 05:09:45;;;;;;;17.10;15.70;;;21.90;99.90;;;;;;5011843;28;20550;-47
2022/08/19 05:12:12;;;;;;;16.97;15.67;;;22.00;99.90;;;;;;5011731;28;20455;-46
2022/08/19 05:14:38;;;;;;;18.50;17.07;;;22.00;99.90;;;;;;5012009;28;20444;-48
2022/08/19 05:17:06;;;;;;;16.87;15.47;;;22.00;99.90;;;;;;5012011;28;20433;-46
2022/08/19 05:22:35;;;;;;;16.73;15.30;;;22.20;99.90;;;;;;5010761;28;20602;-48
2022/08/19 05:25:05;;;;;;;15.80;14.53;;;22.30;99.90;;;;;;5011828;28;20484;-46
2022/08/19 05:27:31;;;;;;;17.43;16.03;;;22.30;99.90;;;;;;5011921;28;20444;-46
2022/08/19 05:29:58;;;;;;;16.53;15.13;;;22.40;99.90;;;;;;5011239;28;20964;-47
2022/08/19 05:32:27;;;;;;;15.50;14.33;;;22.90;99.90;;;;;;5011530;28;20972;-47
2022/08/19 05:34:53;;;;;;;15.90;14.53;;;22.40;99.90;;;;;;5011735;28;20441;-47
2022/08/19 05:37:20;;;;;;;15.43;14.03;;;22.60;99.90;;;;;;5011749;28;20445;-46
2022/08/19 05:39:47;;;;;;;16.73;15.27;;;22.60;99.90;;;;;;5011235;28;20488;-47
2022/08/19 05:42:14;;;;;;;15.67;14.47;;;22.70;99.90;;;;;;5011095;28;20473;-46
2022/08/19 05:44:43;;;;;;;17.40;15.63;;;22.80;99.90;;;;;;5013706;28;20481;-47
2022/08/19 05:47:12;;;;;;;15.93;14.73;;;22.90;99.90;;;;;;5015343;28;20527;-47
2022/08/19 05:49:40;;;;;;;14.60;13.37;;;22.90;99.90;;;;;;5015043;28;20440;-47
2022/08/19 05:52:08;;;;;;;16.43;14.10;;;22.90;99.90;;;;;;5015415;28;20459;-46
2022/08/19 05:54:37;;;;;;;16.97;15.57;;;22.90;99.90;;;;;;5015414;28;21020;-47
2022/08/19 05:57:04;;;;;;;15.63;14.23;;;22.90;99.90;;;;;;5015657;28;20449;-47
2022/08/19 05:59:31;;;;;;;16.57;15.17;;;22.90;99.90;;;;;;5015090;28;20442;-46
2022/08/19 06:01:57;;;;;;;16.70;15.30;;;22.90;99.90;;;;;;5014963;28;20808;-48
2022/08/19 06:04:25;;;;;;;15.50;14.30;;;23.00;99.90;;;;;;5015296;28;20490;-46
2022/08/19 06:06:54;;;;;;;15.53;14.23;;;23.00;99.90;;;;;;5015365;28;20438;-48
2022/08/19 06:09:22;;;;;;;17.93;16.23;;;23.10;99.90;;;;;;5014787;28;20443;-47
2022/08/19 06:11:53;;;;;;;16.47;15.07;;;23.20;99.90;;;;;;5014922;28;21055;-47
2022/08/19 06:14:23;;;;;;;17.80;16.10;;;23.30;99.90;;;;;;5014894;28;20961;-47
2022/08/19 06:16:52;;;;;;;15.73;14.30;;;23.20;99.90;;;;;;5015404;28;20442;-48
2022/08/19 06:19:20;;;;;;;16.80;15.40;;;23.30;99.90;;;;;;5014702;28;20444;-47
2022/08/19 06:21:48;;;;;;;16.57;15.37;;;23.30;99.90;;;;;;5014724;28;20468;-46
2022/08/19 06:24:19;;;;;;;18.20;16.67;;;23.30;99.90;;;;;;5014948;28;20501;-47
2022/08/19 06:26:48;;;;;;;18.80;16.90;;;23.30;99.90;;;;;;5014653;28;20444;-47
2022/08/19 06:29:17;;;;;;;17.17;15.60;;;23.30;99.90;;;;;;5014151;28;20449;-46
2022/08/19 06:31:46;;;;;;;18.50;17.00;;;23.40;99.90;;;;;;5014579;28;21017;-47
2022/08/19 06:34:14;;;;;;;18.57;17.07;;;23.40;99.90;;;;;;5014356;28;20611;-48
2022/08/19 06:36:44;;;;;;;18.57;17.00;;;23.40;99.90;;;;;;5014324;28;20441;-46
2022/08/19 06:39:12;;;;;;;19.30;17.60;;;23.50;99.90;;;;;;5014062;28;20433;-48
2022/08/19 06:41:43;;;;;;;17.30;15.80;;;23.60;99.90;;;;;;5013852;28;20453;-47
2022/08/19 06:44:17;;;;;;;18.00;16.53;;;23.60;99.90;;;;;;5012981;28;20510;-50
2022/08/19 06:46:44;;;;;;;17.43;16.13;;;23.70;99.90;;;;;;5014146;28;20953;-46
2022/08/19 06:49:13;;;;;;;17.03;15.73;;;23.80;99.90;;;;;;5012461;28;20596;-48
2022/08/19 06:51:41;;;;;;;19.90;17.83;;;23.90;99.90;;;;;;5009163;28;20453;-46
2022/08/19 06:54:08;;;;;;;18.33;16.73;;;23.90;99.90;;;;;;5013855;28;20462;-47
2022/08/19 06:56:34;;;;;;;18.13;16.63;;;24.00;99.90;;;;;;5013289;28;20466;-48
2022/08/19 06:59:05;;;;;;;17.60;16.27;;;24.00;99.90;;;;;;5013441;28;20463;-47
2022/08/19 07:01:37;;;;;;;18.60;17.10;;;24.10;99.90;;;;;;5012897;28;20442;-46
2022/08/19 07:04:04;;;;;;;18.40;16.63;;;24.00;99.90;;;;;;5012175;28;20483;-46
2022/08/19 07:06:31;;;;;;;18.53;17.03;;;24.00;99.90;;;;;;5013931;28;20788;-47
2022/08/19 07:08:58;;;;;;;17.40;15.83;;;24.00;99.90;;;;;;5013344;28;20462;-46
2022/08/19 07:11:26;;;;;;;20.20;18.43;;;24.00;99.90;;;;;;5013610;28;20443;-47
2022/08/19 07:13:52;;;;;;;20.97;19.17;;;24.10;99.90;;;;;;5013283;28;20514;-47
2022/08/19 07:16:21;;;;;;;18.77;17.27;;;24.10;99.90;;;;;;5013441;28;20452;-48
2022/08/19 07:18:49;;;;;;;18.20;16.60;;;24.10;99.90;;;;;;5013150;28;20524;-48
2022/08/19 07:21:18;;;;;;;19.37;17.77;;;24.10;99.90;;;;;;5013949;28;20472;-48
2022/08/19 07:23:45;;;;;;;20.83;19.10;;;24.00;99.90;;;;;;5013341;28;20820;-48
2022/08/19 07:26:15;;;;;;;18.43;16.93;;;24.10;99.90;;;;;;5013324;28;20443;-48
2022/08/19 07:28:43;;;;;;;19.47;17.97;;;24.10;99.90;;;;;;5013014;28;20467;-47
2022/08/19 07:31:11;;;;;;;20.33;17.50;;;24.10;99.90;;;;;;5012964;28;20461;-46
2022/08/19 07:33:39;;;;;;;18.97;17.50;;;24.20;99.90;;;;;;5013079;28;20458;-47
2022/08/19 07:36:11;;;;;;;21.20;19.33;;;24.20;99.90;;;;;;5013475;28;20440;-49
2022/08/19 07:38:39;;;;;;;20.90;19.17;;;24.20;99.90;;;;;;5012932;28;20485;-51
2022/08/19 07:41:06;;;;;;;19.13;17.43;;;24.10;99.90;;;;;;5013257;28;21024;-51
2022/08/19 07:43:33;;;;;;;20.70;19.00;;;24.10;99.90;;;;;;5012467;28;20849;-50
2022/08/19 07:45:59;;;;;;;18.87;17.43;;;24.10;99.90;;;;;;5013537;28;20435;-50
2022/08/19 07:48:28;;;;;;;21.27;19.50;;;24.20;99.90;;;;;;5012590;28;20436;-50
2022/08/19 07:51:01;;;;;;;21.50;19.60;;;24.20;99.90;;;;;;5013070;28;20451;-49
2022/08/19 07:53:28;;;;;;;19.93;18.43;;;24.20;99.90;;;;;;5012796;28;20474;-50
2022/08/19 07:55:59;;;;;;;20.23;18.47;;;24.20;99.90;;;;;;5012859;28;20450;-50
2022/08/19 07:58:27;;;;;;;19.27;17.67;;;24.20;99.90;;;;;;5012738;28;20453;-50
2022/08/19 08:00:53;;;;;;;20.60;18.90;;;24.20;99.90;;;;;;5012824;28;20533;-50
2022/08/19 08:09:10;;;;;;;22.70;20.60;;;24.30;99.90;;;;;;5012763;28;20460;-49
2022/08/19 08:09:15;;;;;;;22.57;20.77;;;24.30;99.90;;;;;;5012116;28;20462;-49
2022/08/19 08:11:49;;;;;;;21.40;19.80;;;24.40;99.90;;;;;;5012733;28;20459;-49
2022/08/19 08:14:17;;;;;;;21.33;19.53;;;24.40;99.90;;;;;;5012675;28;20448;-49
2022/08/19 08:16:45;;;;;;;22.30;20.60;;;24.40;99.90;;;;;;5012481;28;20813;-49
2022/08/19 08:19:14;;;;;;;20.80;19.00;;;24.30;99.90;;;;;;5012541;28;20515;-50
2022/08/19 08:21:43;;;;;;;21.27;19.33;;;24.40;99.90;;;;;;5011964;28;20819;-48
2022/08/19 08:24:10;;;;;;;20.57;19.00;;;24.50;99.90;;;;;;5012359;28;20475;-49
2022/08/19 08:26:37;;;;;;;22.60;20.80;;;24.50;99.90;;;;;;5012026;28;20458;-49
2022/08/19 08:29:10;;;;;;;21.23;19.53;;;24.60;99.90;;;;;;5011934;28;20439;-50
2022/08/19 08:31:36;;;;;;;21.83;19.93;;;24.60;99.90;;;;;;5010928;28;20468;-50
2022/08/19 08:34:03;;;;;;;22.10;20.43;;;24.70;99.90;;;;;;5012303;28;20433;-50
2022/08/19 08:36:33;;;;;;;22.00;20.07;;;24.70;99.90;;;;;;5012881;28;20436;-50
2022/08/19 08:39:01;;;;;;;21.60;19.90;;;24.70;99.90;;;;;;5011801;28;20451;-50
2022/08/19 08:41:35;;;;;;;22.23;20.50;;;24.70;99.90;;;;;;5012233;28;20436;-50
2022/08/19 08:44:04;;;;;;;21.43;19.73;;;24.70;99.90;;;;;;5010872;28;20850;-49
2022/08/19 08:46:38;;;;;;;22.00;20.10;;;24.80;99.90;;;;;;5011232;28;20886;-50
2022/08/19 08:49:12;;;;;;;21.87;20.17;;;24.90;99.90;;;;;;5010451;28;20441;-50
2022/08/19 08:51:44;;;;;;;22.60;20.80;;;25.00;99.90;;;;;;5011727;28;20980;-50
2022/08/19 08:54:16;;;;;;;22.57;20.87;;;24.90;99.90;;;;;;5012072;28;20445;-49
2022/08/19 08:56:45;;;;;;;27.50;25.20;;;25.20;99.90;;;;;;5012039;28;20428;-49
2022/08/19 08:59:19;;;;;;;22.73;20.97;;;25.20;99.90;;;;;;5011222;28;20455;-50
2022/08/19 09:01:45;;;;;;;21.63;19.87;;;25.20;99.90;;;;;;5011718;28;20433;-51
2022/08/19 09:04:13;;;;;;;24.90;22.53;;;25.30;99.90;;;;;;5012314;28;20440;-50
2022/08/19 09:06:51;;;;;;;23.10;21.40;;;25.40;99.90;;;;;;5011353;28;20432;-49
2022/08/19 09:09:30;;;;;;;22.43;20.63;;;25.50;99.90;;;;;;5011486;28;20486;-50
2022/08/19 09:12:05;;;;;;;23.07;21.17;;;25.40;99.90;;;;;;5011568;28;20458;-51
2022/08/19 09:14:40;;;;;;;22.93;21.00;;;25.40;99.90;;;;;;5010378;28;20461;-49
2022/08/19 09:17:08;;;;;;;23.00;21.00;;;25.40;99.90;;;;;;5011416;28;20519;-50
2022/08/19 09:19:35;;;;;;;21.00;19.40;;;25.40;99.90;;;;;;5009868;28;20459;-50
2022/08/19 09:22:02;;;;;;;21.37;19.77;;;25.40;99.90;;;;;;5011220;28;20467;-50
2022/08/19 09:24:31;;;;;;;20.50;18.97;;;25.40;99.90;;;;;;5011446;28;20480;-49
2022/08/19 09:26:57;;;;;;;20.77;19.17;;;25.50;99.90;;;;;;5011215;28;20433;-50
2022/08/19 09:29:24;;;;;;;21.60;19.70;;;25.60;99.90;;;;;;5011091;28;20494;-50
2022/08/19 09:31:51;;;;;;;21.90;20.27;;;25.70;99.90;;;;;;5011034;28;20440;-50
2022/08/19 09:34:19;;;;;;;21.23;19.53;;;25.70;99.90;;;;;;5010158;28;20452;-51
2022/08/19 09:36:46;;;;;;;20.97;19.00;;;25.80;99.90;;;;;;5010188;28;20570;-51
2022/08/19 09:39:12;;;;;;;21.03;19.13;;;26.00;99.90;;;;;;5011200;28;20452;-51
2022/08/19 09:41:40;;;;;;;19.87;18.27;;;26.20;99.90;;;;;;5010684;28;20807;-49
2022/08/19 09:44:07;;;;;;;18.83;17.53;;;26.40;99.90;;;;;;5011510;28;20463;-49
2022/08/19 09:46:33;;;;;;;18.73;17.33;;;26.40;99.90;;;;;;5011478;28;20492;-50
2022/08/19 09:49:01;;;;;;;23.47;21.37;;;26.60;99.90;;;;;;5010683;28;20433;-52
2022/08/19 09:51:29;;;;;;;17.30;16.00;;;26.60;99.90;;;;;;5011369;28;20459;-50
2022/08/19 09:53:59;;;;;;;20.10;18.40;;;26.50;99.90;;;;;;5011276;28;20980;-51
2022/08/19 09:56:26;;;;;;;19.70;18.07;;;26.50;99.90;;;;;;5011717;28;20437;-52
2022/08/19 09:58:54;;;;;;;18.80;17.03;;;26.60;99.90;;;;;;5009820;28;20823;-51
2022/08/19 10:01:23;;;;;;;18.43;16.83;;;26.70;99.90;;;;;;5011436;28;20436;-50
2022/08/19 10:03:53;;;;;;;22.07;20.27;;;26.80;99.90;;;;;;5011442;28;20456;-52
2022/08/19 10:06:20;;;;;;;18.13;16.83;;;26.80;99.90;;;;;;5011652;28;20480;-51
2022/08/19 10:08:47;;;;;;;18.23;16.73;;;26.70;99.90;;;;;;5011249;28;20446;-51
2022/08/19 10:11:15;;;;;;;19.20;17.80;;;26.70;99.90;;;;;;5011410;28;20474;-50
2022/08/19 10:13:43;;;;;;;18.57;16.90;;;26.70;99.90;;;;;;5011253;28;20472;-51
2022/08/19 10:16:13;;;;;;;18.13;16.83;;;26.60;99.90;;;;;;5011518;28;20428;-50
2022/08/19 10:18:42;;;;;;;18.60;17.07;;;26.50;99.90;;;;;;5010656;28;20440;-51
2022/08/19 10:21:11;;;;;;;19.53;17.93;;;26.40;99.90;;;;;;5011501;28;20439;-51
2022/08/19 10:23:39;;;;;;;18.03;16.60;;;26.40;99.90;;;;;;5024157;23;20638;-49
2022/08/19 10:26:07;;;;;;;18.87;17.27;;;26.30;99.90;;;;;;5011439;28;20915;-49
2022/08/19 10:28:36;;;;;;;20.70;18.40;;;26.20;99.90;;;;;;5010447;28;20447;-49
2022/08/19 10:31:08;;;;;;;19.37;17.77;;;26.20;99.90;;;;;;5013512;28;20448;-49
2022/08/19 10:33:37;;;;;;;20.13;18.00;;;26.20;99.90;;;;;;5015047;28;20539;-49
2022/08/19 10:36:06;;;;;;;17.20;15.70;;;26.20;99.90;;;;;;5015045;28;20439;-49
2022/08/19 10:38:36;;;;;;;18.40;16.80;;;26.20;99.90;;;;;;5014848;28;20452;-50
2022/08/19 10:41:11;;;;;;;18.23;16.63;;;26.20;99.90;;;;;;5015283;28;20527;-49
2022/08/19 10:43:39;;;;;;;16.70;15.30;;;26.20;99.90;;;;;;5014841;28;20455;-49
2022/08/19 10:46:06;;;;;;;18.37;16.87;;;26.20;99.90;;;;;;5014769;28;20478;-49
2022/08/19 10:48:33;;;;;;;18.07;16.37;;;26.30;99.90;;;;;;5014404;28;20444;-49
2022/08/19 10:53:46;;;;;;;17.20;15.67;;;26.30;99.90;;;;;;4994760;28;20453;-49
2022/08/19 10:58:57;;;;;;;16.60;15.20;;;26.60;99.90;;;;;;5010118;28;20440;-50
2022/08/19 11:01:24;;;;;;;17.23;15.73;;;26.60;99.90;;;;;;5014673;28;20528;-50
2022/08/19 11:03:51;;;;;;;16.70;14.97;;;26.60;99.90;;;;;;5013425;28;20587;-49
2022/08/19 11:06:20;;;;;;;17.80;16.30;;;26.70;99.90;;;;;;5014032;28;20590;-49
2022/08/19 11:08:46;;;;;;;17.33;15.83;;;26.60;99.90;;;;;;5013880;28;20881;-50
2022/08/19 11:11:13;;;;;;;16.63;15.10;;;27.00;99.90;;;;;;5014340;28;20456;-50
2022/08/19 11:13:42;;;;;;;17.03;15.63;;;26.50;99.90;;;;;;5013958;28;20463;-50
2022/08/19 11:16:13;;;;;;;16.60;15.20;;;26.40;99.90;;;;;;5014578;28;20424;-50
2022/08/19 11:18:42;;;;;;;17.33;15.83;;;26.40;99.90;;;;;;5013618;28;20436;-49
2022/08/19 11:21:12;;;;;;;16.90;15.50;;;26.50;99.90;;;;;;5014351;28;20443;-50
2022/08/19 11:23:41;;;;;;;15.43;14.23;;;26.50;99.90;;;;;;5014367;28;20476;-49
2022/08/19 11:26:07;;;;;;;15.97;14.47;;;26.50;99.90;;;;;;5010736;28;20508;-49
2022/08/19 11:28:34;;;;;;;14.43;13.33;;;26.50;99.90;;;;;;5009043;28;20435;-50
2022/08/19 11:31:03;;;;;;;16.73;14.90;;;26.50;99.90;;;;;;5012323;28;20459;-51
2022/08/19 11:33:30;;;;;;;16.83;15.47;;;26.50;99.90;;;;;;5012298;28;20845;-50
2022/08/19 11:35:58;;;;;;;17.03;15.60;;;26.60;99.90;;;;;;5013495;28;20948;-50
2022/08/19 11:38:25;;;;;;;16.10;14.80;;;26.60;99.90;;;;;;5011030;28;20494;-49
2022/08/19 11:40:57;;;;;;;16.43;15.10;;;26.60;99.90;;;;;;5004169;28;20445;-50
2022/08/19 11:43:24;;;;;;;16.77;15.40;;;26.60;99.90;;;;;;4999241;28;20519;-50
2022/08/19 11:45:51;;;;;;;15.93;14.70;;;26.60;99.90;;;;;;5013935;28;20569;-50
2022/08/19 11:48:22;;;;;;;15.60;14.10;;;26.60;99.90;;;;;;5011607;28;20527;-50
2022/08/19 11:50:49;;;;;;;16.43;14.83;;;26.60;99.90;;;;;;5010789;28;20474;-49
2022/08/19 11:53:16;;;;;;;14.90;13.60;;;26.60;99.90;;;;;;5011568;28;20475;-49
2022/08/19 11:55:44;;;;;;;16.10;14.70;;;26.50;99.90;;;;;;5012360;28;20437;-49
2022/08/19 11:58:12;;;;;;;15.30;14.00;;;26.50;99.90;;;;;;5011628;28;20529;-50
2022/08/19 12:00:39;;;;;;;15.40;14.10;;;26.40;99.90;;;;;;5013258;28;20953;-50
2022/08/19 12:03:06;;;;;;;13.20;12.10;;;26.30;99.90;;;;;;5013091;28;20452;-48
2022/08/19 12:05:33;;;;;;;14.10;13.00;;;26.30;99.90;;;;;;5013356;28;20476;-49
2022/08/19 12:07:59;;;;;;;13.83;12.53;;;26.30;99.90;;;;;;5013233;28;20445;-49
2022/08/19 12:10:26;;;;;;;14.20;12.90;;;26.50;99.90;;;;;;5012712;28;20440;-49
2022/08/19 12:12:52;;;;;;;15.10;13.70;;;26.60;99.90;;;;;;5013018;28;20473;-50
2022/08/19 12:15:20;;;;;;;14.37;13.03;;;26.70;99.90;;;;;;5013187;28;20443;-49
2022/08/19 12:17:47;;;;;;;14.07;12.77;;;26.80;99.90;;;;;;5013103;28;20432;-51
2022/08/19 12:20:16;;;;;;;12.77;11.73;;;26.70;99.90;;;;;;5011176;28;20444;-51
2022/08/19 12:22:43;;;;;;;14.07;12.80;;;26.90;99.90;;;;;;5011749;28;20507;-50
2022/08/19 12:25:12;;;;;;;12.30;11.20;;;26.90;99.90;;;;;;5012480;28;20441;-50
2022/08/19 12:27:38;;;;;;;12.60;11.40;;;26.90;99.90;;;;;;5012050;28;21032;-51
2022/08/19 12:30:07;;;;;;;11.90;11.10;;;27.00;99.90;;;;;;5012109;28;20437;-50
2022/08/19 12:32:35;;;;;;;12.07;11.00;;;27.10;99.90;;;;;;5012915;28;20855;-49
2022/08/19 12:35:02;;;;;;;12.27;11.17;;;27.10;99.90;;;;;;5012654;28;20444;-50
2022/08/19 12:37:31;;;;;;;11.70;10.80;;;27.10;99.90;;;;;;5013051;28;20425;-48
2022/08/19 12:39:58;;;;;;;12.13;11.10;;;27.30;99.90;;;;;;5011976;28;20545;-49
2022/08/19 12:42:25;;;;;;;11.07;10.07;;;27.40;99.90;;;;;;5012678;28;20452;-50
2022/08/19 12:44:52;;;;;;;11.27;10.40;;;27.40;99.90;;;;;;5012223;28;20963;-50
2022/08/19 12:47:20;;;;;;;11.60;10.63;;;27.40;99.90;;;;;;5012769;28;20483;-50
2022/08/19 12:49:49;;;;;;;10.20;9.30;;;27.40;99.90;;;;;;5012620;28;20438;-50